Time;durP1;ratioP1;P1;durP2;ratioP2;P2;SDS_P1;SDS_P2;PMS_P1;PMS_P2;Temp;Humidity;BMP_temperature;BMP_pressure;BME280_temperature;BME280_humidity;BME280_pressure;Samples;Min_cycle;Max_cycle;Signal;HPM_P1;HPM_P2
2024/03/12 00:00:38;;;;;;;5.57;4.30;;;10.80;99.90;;;;;;4963083;28;20200;-73
2024/03/12 00:03:07;;;;;;;7.32;4.35;;;10.70;99.90;;;;;;4931779;29;20224;-74
2024/03/12 00:05:33;;;;;;;7.18;5.65;;;10.70;99.90;;;;;;4932035;29;20177;-74
2024/03/12 00:07:58;;;;;;;7.13;5.60;;;10.70;99.90;;;;;;4931956;29;20921;-73
2024/03/12 00:10:24;;;;;;;5.77;4.60;;;10.70;99.90;;;;;;4932846;29;20177;-74
2024/03/12 00:12:51;;;;;;;8.35;6.05;;;10.70;99.90;;;;;;4932950;29;20211;-74
2024/03/12 00:15:22;;;;;;;8.55;6.55;;;10.70;99.90;;;;;;4915717;29;20187;-74
2024/03/12 00:17:49;;;;;;;8.65;6.35;;;10.70;99.90;;;;;;4932479;29;20538;-74
2024/03/12 00:20:24;;;;;;;11.65;7.45;;;10.70;99.90;;;;;;4931290;29;20181;-74
2024/03/12 00:22:52;;;;;;;13.15;8.27;;;10.70;99.90;;;;;;4931436;29;20689;-74
2024/03/12 00:25:19;;;;;;;14.65;11.40;;;10.60;99.90;;;;;;4931851;29;20174;-74
2024/03/12 00:27:46;;;;;;;12.18;9.40;;;10.60;99.90;;;;;;4932991;29;20248;-74
2024/03/12 00:30:13;;;;;;;15.18;11.70;;;10.60;99.90;;;;;;4931005;29;20178;-74
2024/03/12 00:32:40;;;;;;;14.00;10.13;;;10.60;99.90;;;;;;4932953;29;20189;-74
2024/03/12 00:35:10;;;;;;;17.30;11.65;;;10.60;99.90;;;;;;4931682;29;20185;-74
2024/03/12 00:37:41;;;;;;;17.13;11.70;;;10.60;99.90;;;;;;4932897;29;20240;-74
2024/03/12 00:40:11;;;;;;;17.48;11.27;;;10.50;99.90;;;;;;4931103;29;20185;-74
2024/03/12 00:42:40;;;;;;;17.65;13.90;;;10.50;99.90;;;;;;4932643;29;20212;-74
2024/03/12 00:45:11;;;;;;;20.30;13.63;;;10.50;99.90;;;;;;4932339;29;20232;-74
2024/03/12 00:47:38;;;;;;;16.55;12.90;;;10.50;99.90;;;;;;4935116;29;20178;-74
2024/03/12 00:50:04;;;;;;;20.35;15.00;;;10.50;99.90;;;;;;4935807;29;20185;-73
2024/03/12 00:52:30;;;;;;;19.13;14.60;;;10.50;99.90;;;;;;4934533;29;20800;-74
2024/03/12 00:54:56;;;;;;;21.70;16.30;;;10.50;99.90;;;;;;4936326;29;20212;-74
2024/03/12 00:57:22;;;;;;;21.40;15.03;;;10.50;99.90;;;;;;4935077;29;20593;-74
2024/03/12 00:59:48;;;;;;;23.27;17.65;;;10.50;99.90;;;;;;4935553;29;20189;-74
2024/03/12 01:02:14;;;;;;;24.70;17.50;;;10.50;99.90;;;;;;4934747;29;20208;-74
2024/03/12 01:04:39;;;;;;;24.80;17.73;;;10.50;99.90;;;;;;4936303;29;20648;-74
2024/03/12 01:07:10;;;;;;;24.33;17.87;;;10.50;99.90;;;;;;4936142;29;20181;-74
2024/03/12 01:09:39;;;;;;;24.75;17.85;;;10.40;99.90;;;;;;4962744;28;20184;-74
2024/03/12 01:12:11;;;;;;;27.63;18.60;;;10.50;99.90;;;;;;4919177;29;20193;-74
2024/03/12 01:14:37;;;;;;;28.50;18.67;;;10.50;99.90;;;;;;4919081;29;20185;-74
2024/03/12 01:17:06;;;;;;;28.58;19.67;;;10.50;99.90;;;;;;4935066;29;20172;-73
2024/03/12 01:19:33;;;;;;;24.60;18.50;;;10.50;99.90;;;;;;4934656;29;20276;-75
2024/03/12 01:21:59;;;;;;;24.00;19.00;;;10.50;99.90;;;;;;4934999;29;20209;-74
2024/03/12 01:24:28;;;;;;;24.97;17.57;;;10.50;99.90;;;;;;4935561;29;20200;-74
2024/03/12 01:26:53;;;;;;;27.73;20.40;;;10.50;99.90;;;;;;4936525;29;21216;-74
2024/03/12 01:29:22;;;;;;;24.80;18.83;;;10.50;99.90;;;;;;4919095;29;20209;-74
2024/03/12 01:31:50;;;;;;;29.30;21.25;;;10.50;99.90;;;;;;4936146;29;20640;-74
2024/03/12 01:34:18;;;;;;;29.88;20.77;;;10.50;99.90;;;;;;4936983;29;20192;-74
2024/03/12 01:36:47;;;;;;;30.25;20.48;;;10.50;99.90;;;;;;4936354;29;20181;-74
2024/03/12 01:39:16;;;;;;;27.23;20.83;;;10.50;99.90;;;;;;4928412;29;20333;-74
2024/03/12 01:41:45;;;;;;;31.35;19.55;;;10.50;99.90;;;;;;4936550;29;20205;-74
2024/03/12 01:44:11;;;;;;;30.90;20.80;;;10.60;99.90;;;;;;4935862;29;20208;-74
2024/03/12 01:46:39;;;;;;;30.00;22.70;;;10.60;99.90;;;;;;4935385;29;20333;-74
2024/03/12 01:49:08;;;;;;;28.23;20.95;;;10.60;99.90;;;;;;4936738;29;20229;-74
2024/03/12 01:51:35;;;;;;;31.48;22.52;;;10.60;99.90;;;;;;4935337;29;20282;-74
2024/03/12 01:54:03;;;;;;;38.08;25.67;;;10.60;99.90;;;;;;4935690;29;20192;-74
2024/03/12 01:56:32;;;;;;;31.00;22.52;;;10.60;99.90;;;;;;4936176;29;20232;-74
2024/03/12 01:58:58;;;;;;;32.08;22.17;;;10.60;99.90;;;;;;4935343;29;20526;-74
2024/03/12 02:01:25;;;;;;;30.10;22.67;;;10.60;99.90;;;;;;4933893;29;20220;-75
2024/03/12 02:03:56;;;;;;;32.20;23.65;;;10.60;99.90;;;;;;4935583;29;20201;-74
2024/03/12 02:06:22;;;;;;;34.90;23.45;;;10.60;99.90;;;;;;4935554;29;20181;-74
2024/03/12 02:08:52;;;;;;;33.30;25.15;;;10.60;99.90;;;;;;4935026;29;20196;-74
2024/03/12 02:11:19;;;;;;;28.23;22.20;;;10.50;99.90;;;;;;4933046;29;20181;-74
2024/03/12 02:13:46;;;;;;;34.47;24.40;;;10.60;99.90;;;;;;4935738;29;20264;-74
2024/03/12 02:16:11;;;;;;;33.20;23.13;;;10.60;99.90;;;;;;4934450;29;20184;-75
2024/03/12 02:18:38;;;;;;;33.70;24.67;;;10.50;99.90;;;;;;4935671;29;20177;-74
2024/03/12 02:21:04;;;;;;;33.28;23.00;;;10.60;99.90;;;;;;4933326;29;20647;-74
2024/03/12 02:23:41;;;;;;;34.10;24.35;;;10.50;99.90;;;;;;4934923;29;20189;-74
2024/03/12 02:26:09;;;;;;;33.80;25.05;;;10.60;99.90;;;;;;4933986;29;20211;-74
2024/03/12 02:28:36;;;;;;;29.67;22.60;;;10.60;99.90;;;;;;4918494;29;20260;-74
2024/03/12 02:31:04;;;;;;;31.35;22.60;;;10.60;99.90;;;;;;4933216;29;20227;-73
2024/03/12 02:33:30;;;;;;;32.30;22.90;;;10.60;99.90;;;;;;4938909;29;20232;-74
2024/03/12 02:35:56;;;;;;;31.85;24.40;;;10.60;99.90;;;;;;4940141;29;20189;-74
2024/03/12 02:38:22;;;;;;;30.40;22.00;;;10.60;99.90;;;;;;4938573;29;20188;-75
2024/03/12 02:40:49;;;;;;;31.63;23.63;;;10.60;99.90;;;;;;4939281;29;20593;-75
2024/03/12 02:43:15;;;;;;;31.83;23.65;;;10.60;99.90;;;;;;4940022;29;20235;-74
2024/03/12 02:45:42;;;;;;;30.00;22.70;;;10.60;99.90;;;;;;4935627;29;20244;-74
2024/03/12 02:48:12;;;;;;;36.13;24.08;;;10.60;99.90;;;;;;4935446;29;21236;-75
2024/03/12 02:50:39;;;;;;;28.75;22.92;;;10.60;99.90;;;;;;4935344;29;20205;-74
2024/03/12 02:53:06;;;;;;;32.63;23.27;;;10.60;99.90;;;;;;4933726;29;20236;-74
2024/03/12 02:55:33;;;;;;;32.28;22.98;;;10.70;99.90;;;;;;4935123;29;20195;-74
2024/03/12 02:57:59;;;;;;;32.10;22.83;;;10.70;99.90;;;;;;4934354;29;20181;-73
2024/03/12 03:00:25;;;;;;;28.00;21.43;;;10.60;99.90;;;;;;4935782;29;20184;-75
2024/03/12 03:02:54;;;;;;;25.33;20.47;;;10.60;99.90;;;;;;4933162;29;20647;-75
2024/03/12 03:05:20;;;;;;;30.70;20.85;;;10.60;99.90;;;;;;4933733;29;20840;-74
2024/03/12 03:07:48;;;;;;;30.13;20.20;;;10.60;99.90;;;;;;4934143;29;20181;-74
2024/03/12 03:10:14;;;;;;;27.40;20.25;;;10.60;99.90;;;;;;4932759;29;20196;-75
2024/03/12 03:12:43;;;;;;;28.25;21.15;;;10.60;99.90;;;;;;4933784;29;20714;-74
2024/03/12 03:15:12;;;;;;;29.98;21.15;;;10.60;99.90;;;;;;4935260;29;20227;-74
2024/03/12 03:17:48;;;;;;;25.83;20.90;;;10.60;99.90;;;;;;4935177;29;20189;-74
2024/03/12 03:20:15;;;;;;;25.20;19.98;;;10.60;99.90;;;;;;4935115;29;20275;-74
2024/03/12 03:22:41;;;;;;;29.67;21.50;;;10.70;99.90;;;;;;4937984;28;20193;-74
2024/03/12 03:25:08;;;;;;;26.33;20.25;;;10.70;99.90;;;;;;4949162;29;20223;-75
2024/03/12 03:27:34;;;;;;;27.48;18.35;;;10.60;99.90;;;;;;4934224;29;20192;-74
2024/03/12 03:30:00;;;;;;;23.37;17.67;;;10.60;99.90;;;;;;4933747;29;20180;-74
2024/03/12 03:32:26;;;;;;;23.05;17.73;;;10.60;99.90;;;;;;4932730;29;20607;-74
2024/03/12 03:34:52;;;;;;;24.30;16.17;;;10.60;99.90;;;;;;4934251;29;20323;-74
2024/03/12 03:37:21;;;;;;;23.50;16.70;;;10.60;99.90;;;;;;4942372;29;20212;-74
2024/03/12 03:39:47;;;;;;;20.77;16.92;;;10.60;99.90;;;;;;4941798;29;20189;-74
2024/03/12 03:42:15;;;;;;;27.63;17.17;;;10.60;99.90;;;;;;4932951;29;20687;-74
2024/03/12 03:44:41;;;;;;;22.17;16.15;;;10.60;99.90;;;;;;4933663;29;20644;-74
2024/03/12 03:47:06;;;;;;;18.60;15.18;;;10.60;99.90;;;;;;4934942;29;20185;-74
2024/03/12 03:49:32;;;;;;;20.00;16.30;;;10.60;99.90;;;;;;4934731;29;20185;-74
2024/03/12 03:51:58;;;;;;;21.17;17.23;;;10.60;99.90;;;;;;4941476;28;20204;-75
2024/03/12 03:54:24;;;;;;;21.67;16.00;;;10.60;99.90;;;;;;4948583;29;20228;-74
2024/03/12 03:56:49;;;;;;;26.73;16.07;;;10.60;99.90;;;;;;4932896;29;20229;-74
2024/03/12 03:59:16;;;;;;;20.10;15.43;;;10.60;99.90;;;;;;4933585;29;20256;-75
2024/03/12 04:01:42;;;;;;;23.08;17.13;;;10.50;99.90;;;;;;4933804;29;20221;-74
2024/03/12 04:04:10;;;;;;;21.30;14.07;;;10.50;99.90;;;;;;4932594;29;20267;-74
2024/03/12 04:06:39;;;;;;;20.85;14.98;;;10.60;99.90;;;;;;4932690;29;20715;-74
2024/03/12 04:09:05;;;;;;;20.45;15.48;;;10.50;99.90;;;;;;4931857;29;20177;-74
2024/03/12 04:11:33;;;;;;;23.37;16.77;;;10.60;99.90;;;;;;4931455;29;20211;-74
2024/03/12 04:13:59;;;;;;;17.98;13.88;;;10.50;99.90;;;;;;4933685;29;20173;-75
2024/03/12 04:16:25;;;;;;;18.27;12.88;;;10.50;99.90;;;;;;4934393;29;20671;-75
2024/03/12 04:18:54;;;;;;;19.87;14.07;;;10.50;99.90;;;;;;4933572;29;20180;-74
2024/03/12 04:21:20;;;;;;;18.70;13.48;;;10.50;99.90;;;;;;4934094;29;20655;-74
2024/03/12 04:23:46;;;;;;;17.50;13.35;;;10.40;99.90;;;;;;4944240;29;20215;-75
2024/03/12 04:26:12;;;;;;;15.60;12.70;;;10.40;99.90;;;;;;4938555;28;20185;-75
2024/03/12 04:28:38;;;;;;;20.50;13.00;;;10.40;99.90;;;;;;4937459;29;20181;-74
2024/03/12 04:31:07;;;;;;;16.30;13.55;;;10.40;99.90;;;;;;4936374;29;20647;-75
2024/03/12 04:33:36;;;;;;;14.93;11.95;;;10.40;99.90;;;;;;4936942;29;20185;-74
2024/03/12 04:36:03;;;;;;;19.85;13.40;;;10.40;99.90;;;;;;4936832;29;20196;-74
2024/03/12 04:38:30;;;;;;;17.65;13.20;;;10.40;99.90;;;;;;4944583;29;20219;-75
2024/03/12 04:40:56;;;;;;;17.75;14.38;;;10.40;99.90;;;;;;4941579;29;20639;-74
2024/03/12 04:43:22;;;;;;;17.00;13.38;;;10.40;99.90;;;;;;4941233;29;20343;-75
2024/03/12 04:45:48;;;;;;;18.00;12.83;;;10.40;99.90;;;;;;4941611;29;20209;-74
2024/03/12 04:48:15;;;;;;;16.30;13.75;;;10.40;99.90;;;;;;4943342;29;20173;-75
2024/03/12 04:50:41;;;;;;;19.08;13.48;;;10.40;99.90;;;;;;4927253;29;20193;-74
2024/03/12 04:53:07;;;;;;;13.53;11.83;;;10.40;99.90;;;;;;4937717;29;20204;-75
2024/03/12 04:55:39;;;;;;;17.83;13.20;;;10.40;99.90;;;;;;4937710;29;20208;-75
2024/03/12 04:58:05;;;;;;;15.00;12.00;;;10.40;99.90;;;;;;4937995;29;20189;-75
2024/03/12 05:00:31;;;;;;;19.60;13.23;;;10.40;99.90;;;;;;4936658;29;20189;-75
2024/03/12 05:02:56;;;;;;;16.95;12.65;;;10.40;99.90;;;;;;4934894;29;20209;-75
2024/03/12 05:05:23;;;;;;;16.23;14.00;;;10.30;99.90;;;;;;4936793;29;20260;-75
2024/03/12 05:07:50;;;;;;;15.18;12.25;;;10.30;99.90;;;;;;4936798;29;20264;-75
2024/03/12 05:10:24;;;;;;;13.13;11.52;;;10.30;99.90;;;;;;4934666;29;20184;-74
2024/03/12 05:12:52;;;;;;;19.15;15.32;;;10.30;99.90;;;;;;4935911;29;20201;-75
2024/03/12 05:15:19;;;;;;;15.02;12.45;;;10.30;99.90;;;;;;4919250;29;20177;-75
2024/03/12 05:17:48;;;;;;;16.30;12.20;;;10.30;99.90;;;;;;4936054;29;20183;-75
2024/03/12 05:20:17;;;;;;;15.30;12.70;;;10.30;99.90;;;;;;4935228;29;20265;-75
2024/03/12 05:22:45;;;;;;;20.08;14.18;;;10.30;99.90;;;;;;4934566;29;20193;-75
2024/03/12 05:25:22;;;;;;;19.70;13.77;;;10.30;99.90;;;;;;4935860;29;20247;-75
2024/03/12 05:27:49;;;;;;;18.88;13.73;;;10.30;99.90;;;;;;4936056;29;20192;-73
2024/03/12 05:30:15;;;;;;;20.17;14.50;;;10.30;99.90;;;;;;4935140;29;20169;-73
2024/03/12 05:32:47;;;;;;;20.57;13.93;;;10.30;99.90;;;;;;4938921;29;20694;-73
2024/03/12 05:35:25;;;;;;;18.10;14.02;;;10.30;99.90;;;;;;4945118;28;20952;-73
2024/03/12 05:38:10;;;;;;;16.95;13.38;;;10.30;99.90;;;;;;4935800;29;20196;-74
2024/03/12 05:40:43;;;;;;;17.30;13.80;;;10.30;99.90;;;;;;4929093;29;20808;-75
2024/03/12 05:48:39;;;;;;;21.50;15.15;;;10.30;99.90;;;;;;4923492;29;20219;-74
2024/03/12 05:51:05;;;;;;;18.50;14.63;;;10.30;99.90;;;;;;4937376;28;20180;-74
2024/03/12 05:53:31;;;;;;;19.50;14.18;;;10.30;99.90;;;;;;4947613;29;20270;-74
2024/03/12 05:55:57;;;;;;;17.97;12.83;;;10.20;99.90;;;;;;4947203;28;20221;-73
2024/03/12 05:58:22;;;;;;;19.70;14.60;;;10.30;99.90;;;;;;4933822;29;20181;-74
2024/03/12 06:00:51;;;;;;;19.50;15.07;;;10.30;99.90;;;;;;4917750;29;21237;-74
2024/03/12 06:03:18;;;;;;;19.13;13.65;;;10.30;99.90;;;;;;4936071;29;20357;-73
2024/03/12 06:05:44;;;;;;;19.50;13.65;;;10.30;99.90;;;;;;4944126;29;20224;-74
2024/03/12 06:08:10;;;;;;;20.53;14.00;;;10.30;99.90;;;;;;4935136;29;20626;-74
2024/03/12 06:10:36;;;;;;;25.97;13.90;;;10.30;99.90;;;;;;4933182;29;20268;-74
2024/03/12 06:13:02;;;;;;;20.90;13.50;;;10.30;99.90;;;;;;4934454;29;20189;-74
2024/03/12 06:15:29;;;;;;;18.50;13.10;;;10.30;99.90;;;;;;4935035;29;20552;-74
2024/03/12 06:17:55;;;;;;;23.48;14.30;;;10.30;99.90;;;;;;4933874;29;20748;-74
2024/03/12 06:20:21;;;;;;;24.47;13.40;;;10.40;99.90;;;;;;4934627;29;20263;-75
2024/03/12 06:22:47;;;;;;;15.47;13.20;;;10.30;99.90;;;;;;4934836;29;20682;-74
2024/03/12 06:25:13;;;;;;;17.42;14.70;;;10.30;99.90;;;;;;4933554;29;20640;-73
2024/03/12 06:27:39;;;;;;;17.70;13.03;;;10.30;99.90;;;;;;4933567;29;20185;-74
2024/03/12 06:30:06;;;;;;;19.00;14.20;;;10.30;99.90;;;;;;4934194;29;20795;-74
2024/03/12 06:32:32;;;;;;;23.45;17.10;;;10.30;99.90;;;;;;4938803;29;20638;-74
2024/03/12 06:34:58;;;;;;;19.48;14.07;;;10.30;99.90;;;;;;4952771;29;20180;-74
2024/03/12 06:37:27;;;;;;;23.07;15.53;;;10.30;99.90;;;;;;4933764;29;20180;-74
2024/03/12 06:39:54;;;;;;;20.85;15.20;;;10.30;99.90;;;;;;4934274;29;20597;-74
2024/03/12 06:42:25;;;;;;;18.27;14.85;;;10.20;99.90;;;;;;4934187;29;20216;-74
2024/03/12 06:44:52;;;;;;;18.98;14.05;;;10.20;99.90;;;;;;4916984;29;20215;-74
2024/03/12 06:47:19;;;;;;;19.58;13.65;;;10.20;99.90;;;;;;4933598;29;20177;-74
2024/03/12 06:49:45;;;;;;;20.75;13.13;;;10.20;99.90;;;;;;4933916;29;20185;-74
2024/03/12 06:52:17;;;;;;;20.02;13.82;;;10.20;99.90;;;;;;4934157;29;20255;-74
2024/03/12 06:54:44;;;;;;;21.38;13.80;;;10.20;99.90;;;;;;4934300;29;20209;-74
2024/03/12 06:57:10;;;;;;;20.80;15.48;;;10.20;99.90;;;;;;4934011;29;20655;-75
2024/03/12 06:59:37;;;;;;;20.90;14.73;;;10.20;99.90;;;;;;4932346;29;20219;-75
2024/03/12 07:02:03;;;;;;;20.02;14.70;;;10.30;99.90;;;;;;4933858;29;20220;-76
2024/03/12 07:04:43;;;;;;;18.63;13.45;;;10.20;99.90;;;;;;4935089;29;20201;-76
2024/03/12 07:07:10;;;;;;;20.83;14.23;;;10.30;99.90;;;;;;4938442;29;20234;-76
2024/03/12 07:09:40;;;;;;;17.33;13.45;;;10.30;99.90;;;;;;4933515;29;20192;-75
2024/03/12 07:12:08;;;;;;;17.85;14.02;;;10.30;99.90;;;;;;4941265;29;20211;-76
2024/03/12 07:14:42;;;;;;;21.10;14.68;;;10.30;99.90;;;;;;4934324;29;20189;-75
2024/03/12 07:17:12;;;;;;;18.60;13.60;;;10.30;99.90;;;;;;4934280;29;20263;-76
2024/03/12 07:19:40;;;;;;;19.33;13.82;;;10.30;99.90;;;;;;4932894;29;20189;-76
2024/03/12 07:22:07;;;;;;;19.83;15.23;;;10.30;99.90;;;;;;4932158;29;20203;-75
2024/03/12 07:24:36;;;;;;;17.85;12.77;;;10.30;99.90;;;;;;4933641;29;20212;-75
2024/03/12 07:27:04;;;;;;;19.52;12.90;;;10.30;99.90;;;;;;4932708;29;20212;-75
2024/03/12 07:29:32;;;;;;;19.90;14.50;;;10.30;99.90;;;;;;4931838;29;20276;-75
2024/03/12 07:32:01;;;;;;;16.90;13.32;;;10.20;99.90;;;;;;4915366;29;20207;-75
2024/03/12 07:34:27;;;;;;;16.58;11.82;;;10.20;99.90;;;;;;4916329;29;20192;-76
2024/03/12 07:36:53;;;;;;;18.33;12.45;;;10.30;99.90;;;;;;4932725;29;20188;-76
2024/03/12 07:39:24;;;;;;;22.35;12.70;;;10.30;99.90;;;;;;4932583;29;20177;-76
2024/03/12 07:41:53;;;;;;;19.77;13.80;;;10.30;99.90;;;;;;4933152;29;20255;-76
2024/03/12 07:44:19;;;;;;;20.45;13.48;;;10.30;99.90;;;;;;4932393;29;20209;-76
2024/03/12 07:46:45;;;;;;;17.80;12.90;;;10.30;99.90;;;;;;4933780;29;20248;-74
2024/03/12 07:49:11;;;;;;;19.37;13.00;;;10.30;99.90;;;;;;4933139;29;20679;-76
2024/03/12 07:51:37;;;;;;;18.38;14.10;;;10.30;99.90;;;;;;4915863;29;20620;-75
2024/03/12 07:54:06;;;;;;;21.05;14.07;;;10.30;99.90;;;;;;4933051;29;20188;-75
2024/03/12 07:56:32;;;;;;;20.27;14.15;;;10.30;99.90;;;;;;4935588;29;20271;-75
2024/03/12 07:58:58;;;;;;;19.13;12.85;;;10.30;99.90;;;;;;4932574;29;20193;-75
2024/03/12 08:01:26;;;;;;;21.50;14.60;;;10.30;99.90;;;;;;4940861;28;20215;-75
2024/03/12 08:03:53;;;;;;;22.88;16.88;;;10.30;99.90;;;;;;4941040;29;20678;-74
2024/03/12 08:06:20;;;;;;;20.40;15.15;;;10.30;99.90;;;;;;4949588;29;20589;-74
2024/03/12 08:08:48;;;;;;;19.30;13.05;;;10.40;99.90;;;;;;4937122;29;20191;-74
2024/03/12 08:11:15;;;;;;;21.55;14.57;;;10.40;99.90;;;;;;4948077;28;20185;-74
2024/03/12 08:13:41;;;;;;;22.92;15.93;;;10.40;99.90;;;;;;4930873;29;20184;-74
2024/03/12 08:16:07;;;;;;;20.95;14.93;;;10.40;99.90;;;;;;4925354;29;20186;-75
2024/03/12 08:18:33;;;;;;;21.08;16.67;;;10.40;99.90;;;;;;4939028;29;20197;-75
2024/03/12 08:20:58;;;;;;;20.23;15.17;;;10.40;99.90;;;;;;4938919;29;20180;-75
2024/03/12 08:23:27;;;;;;;20.43;13.17;;;10.40;99.90;;;;;;4931486;29;20215;-75
2024/03/12 08:25:52;;;;;;;23.33;14.73;;;10.40;99.90;;;;;;4933252;29;20260;-76
2024/03/12 08:28:20;;;;;;;21.47;15.93;;;10.40;99.90;;;;;;4932910;29;20190;-76
2024/03/12 08:30:46;;;;;;;22.83;15.10;;;10.40;99.90;;;;;;4932706;29;20169;-76
2024/03/12 08:33:13;;;;;;;20.65;15.18;;;10.50;99.90;;;;;;4933295;29;20228;-75
2024/03/12 08:35:39;;;;;;;20.02;14.20;;;10.50;99.90;;;;;;4936160;29;20220;-75
2024/03/12 08:38:05;;;;;;;22.53;14.90;;;10.50;99.90;;;;;;4943383;29;20212;-76
2024/03/12 08:40:30;;;;;;;21.57;14.47;;;10.50;99.90;;;;;;4930912;29;20592;-75
2024/03/12 08:42:56;;;;;;;21.30;15.13;;;10.60;99.90;;;;;;4931029;29;20261;-75
2024/03/12 08:45:22;;;;;;;20.03;14.57;;;10.50;99.90;;;;;;4932580;29;20743;-75
2024/03/12 08:47:48;;;;;;;18.70;14.37;;;10.50;99.90;;;;;;4932966;29;20585;-76
2024/03/12 08:50:14;;;;;;;19.67;12.80;;;10.60;99.90;;;;;;4931089;29;20185;-76
2024/03/12 08:52:40;;;;;;;16.98;12.75;;;10.50;99.90;;;;;;4932471;29;20620;-74
2024/03/12 08:55:06;;;;;;;18.87;13.77;;;10.60;99.90;;;;;;4932971;29;20188;-76
2024/03/12 08:57:32;;;;;;;21.20;15.68;;;10.60;99.90;;;;;;4931750;29;20240;-77
2024/03/12 09:00:00;;;;;;;19.83;16.07;;;10.60;99.90;;;;;;4932631;29;20181;-76
2024/03/12 09:02:27;;;;;;;18.45;15.30;;;10.70;99.90;;;;;;4933864;29;20337;-76
2024/03/12 09:04:53;;;;;;;20.63;14.15;;;10.70;99.90;;;;;;4940108;29;20687;-75
2024/03/12 09:07:19;;;;;;;16.95;14.05;;;10.70;99.90;;;;;;4944912;29;20530;-74
2024/03/12 09:09:45;;;;;;;18.70;13.50;;;10.70;99.90;;;;;;4954460;29;20187;-75
2024/03/12 09:12:11;;;;;;;20.20;14.67;;;10.80;99.90;;;;;;4958207;28;20197;-75
2024/03/12 09:14:36;;;;;;;19.93;13.90;;;10.80;99.90;;;;;;4920708;29;20659;-76
2024/03/12 09:17:07;;;;;;;20.80;14.50;;;10.80;99.90;;;;;;4936823;29;20235;-76
2024/03/12 09:19:32;;;;;;;22.73;13.82;;;10.80;99.90;;;;;;4935467;29;20268;-76
2024/03/12 09:22:00;;;;;;;20.90;13.33;;;10.90;99.90;;;;;;4936428;29;20292;-76
2024/03/12 09:24:26;;;;;;;19.65;14.10;;;10.90;99.90;;;;;;4936299;29;20212;-75
2024/03/12 09:26:53;;;;;;;19.90;15.60;;;11.00;99.90;;;;;;4943173;29;20173;-74
2024/03/12 09:29:20;;;;;;;23.55;14.63;;;11.00;99.90;;;;;;4936116;29;20667;-75
2024/03/12 09:31:46;;;;;;;20.63;13.60;;;11.10;99.90;;;;;;4923746;29;20192;-75
2024/03/12 09:34:12;;;;;;;21.90;14.13;;;11.10;99.90;;;;;;4939162;29;20184;-75
2024/03/12 09:36:38;;;;;;;17.40;13.73;;;11.20;99.90;;;;;;4936311;29;20177;-74
2024/03/12 09:39:10;;;;;;;17.17;13.30;;;11.30;99.90;;;;;;4936735;29;20189;-74
2024/03/12 09:41:38;;;;;;;16.73;12.32;;;11.40;99.90;;;;;;4919924;29;20213;-75
2024/03/12 09:44:07;;;;;;;17.90;14.70;;;11.40;99.90;;;;;;4936948;29;20224;-74
2024/03/12 09:46:36;;;;;;;16.60;13.27;;;11.50;99.90;;;;;;4936175;29;20177;-73
2024/03/12 09:49:02;;;;;;;16.15;12.52;;;11.50;99.90;;;;;;4935707;29;20176;-74
2024/03/12 09:51:30;;;;;;;20.98;13.02;;;11.50;99.90;;;;;;4935269;29;20197;-74
2024/03/12 09:53:56;;;;;;;17.65;12.82;;;11.60;99.90;;;;;;4934994;29;20248;-74
2024/03/12 09:56:23;;;;;;;18.47;13.30;;;11.60;99.90;;;;;;4934794;29;20177;-75
2024/03/12 09:58:48;;;;;;;18.45;14.07;;;11.60;99.90;;;;;;4936902;29;20185;-76
2024/03/12 10:01:14;;;;;;;17.83;13.80;;;11.70;99.90;;;;;;4938886;29;20211;-76
2024/03/12 10:03:41;;;;;;;17.63;14.70;;;11.70;99.90;;;;;;4936966;29;20207;-76
2024/03/12 10:06:09;;;;;;;18.20;12.43;;;11.70;99.90;;;;;;4934778;29;20265;-76
2024/03/12 10:08:34;;;;;;;19.65;13.68;;;11.70;99.90;;;;;;4921776;29;20181;-75
2024/03/12 10:11:02;;;;;;;16.13;13.40;;;11.70;99.90;;;;;;4934980;29;20184;-76
2024/03/12 10:13:28;;;;;;;22.63;15.10;;;11.80;99.90;;;;;;4937515;29;20573;-75
2024/03/12 10:15:59;;;;;;;16.35;13.02;;;11.80;99.90;;;;;;4940452;29;20169;-76
2024/03/12 10:18:37;;;;;;;20.90;13.00;;;11.80;99.90;;;;;;4936081;29;20185;-76
2024/03/12 10:21:03;;;;;;;17.48;12.30;;;11.80;99.90;;;;;;4933660;29;20225;-76
2024/03/12 10:23:31;;;;;;;17.90;14.07;;;11.90;99.90;;;;;;4935803;29;20304;-76
2024/03/12 10:26:15;;;;;;;18.05;14.15;;;12.00;99.90;;;;;;4935629;29;20268;-76
2024/03/12 10:28:45;;;;;;;18.00;12.90;;;12.10;99.90;;;;;;4936265;29;20183;-76
2024/03/12 10:31:12;;;;;;;18.02;13.88;;;12.20;99.90;;;;;;4935154;29;20540;-76
2024/03/12 10:33:42;;;;;;;17.73;14.30;;;12.30;99.90;;;;;;4919183;29;20220;-77
2024/03/12 10:36:11;;;;;;;17.95;13.57;;;12.30;99.90;;;;;;4936108;29;20341;-76
2024/03/12 10:38:39;;;;;;;17.75;14.15;;;12.40;99.90;;;;;;4936173;29;20220;-76
2024/03/12 10:41:17;;;;;;;18.60;15.82;;;12.40;99.90;;;;;;4934538;29;20219;-76
2024/03/12 10:43:45;;;;;;;20.88;15.90;;;12.40;99.90;;;;;;4934363;29;20204;-76
2024/03/12 10:46:16;;;;;;;19.38;15.80;;;12.50;99.90;;;;;;4944967;29;20230;-76
2024/03/12 10:48:42;;;;;;;17.38;15.15;;;12.50;99.90;;;;;;4934538;29;20181;-76
2024/03/12 10:51:12;;;;;;;18.02;14.10;;;12.50;99.90;;;;;;4932818;29;20213;-76
2024/03/12 10:53:42;;;;;;;20.05;14.50;;;12.50;99.90;;;;;;4938478;29;20762;-76
2024/03/12 10:56:09;;;;;;;19.17;14.98;;;12.60;99.90;;;;;;4936394;29;20597;-76
2024/03/12 10:58:36;;;;;;;20.33;16.85;;;12.60;99.90;;;;;;4934526;29;20219;-76
2024/03/12 11:01:04;;;;;;;18.98;14.68;;;12.70;99.90;;;;;;4918141;29;20207;-79
2024/03/12 11:03:33;;;;;;;21.98;16.17;;;12.70;99.90;;;;;;4943267;29;20343;-79
2024/03/12 11:06:00;;;;;;;18.35;15.00;;;12.80;99.90;;;;;;4946621;29;20224;-78
2024/03/12 11:08:27;;;;;;;22.25;16.40;;;12.80;99.90;;;;;;4943986;29;20189;-77
2024/03/12 11:10:53;;;;;;;17.90;15.50;;;12.90;99.90;;;;;;4934389;29;20181;-78
2024/03/12 11:13:20;;;;;;;19.33;14.93;;;12.90;99.90;;;;;;4938116;29;20189;-78
2024/03/12 11:15:46;;;;;;;17.93;14.33;;;13.00;99.90;;;;;;4938599;29;20184;-79
2024/03/12 11:18:14;;;;;;;24.48;17.23;;;12.90;99.90;;;;;;4940229;29;20592;-79
2024/03/12 11:20:41;;;;;;;20.92;16.85;;;13.00;99.90;;;;;;4948454;29;20172;-78
2024/03/12 11:23:10;;;;;;;18.92;16.85;;;13.00;99.90;;;;;;4952152;28;20247;-79
2024/03/12 11:25:39;;;;;;;20.20;16.35;;;13.00;99.90;;;;;;4935482;29;20243;-79
2024/03/12 11:28:24;;;;;;;19.20;15.87;;;13.10;99.90;;;;;;4921877;29;20624;-80
2024/03/12 11:31:02;;;;;;;19.65;14.90;;;13.10;99.90;;;;;;4929059;29;20592;-80
2024/03/12 11:33:49;;;;;;;18.55;15.68;;;13.10;99.90;;;;;;4933761;29;20618;-80
2024/03/12 11:36:22;;;;;;;21.60;16.47;;;13.20;99.90;;;;;;4932827;29;20268;-80
2024/03/12 11:38:52;;;;;;;24.52;17.20;;;13.20;99.90;;;;;;4934148;29;20655;-80
2024/03/12 11:41:21;;;;;;;20.60;15.80;;;13.30;99.90;;;;;;4933016;29;20189;-80
2024/03/12 11:43:47;;;;;;;21.30;15.93;;;13.30;99.90;;;;;;4934779;29;21181;-80
2024/03/12 11:46:39;;;;;;;16.83;14.63;;;13.40;99.90;;;;;;4934044;29;20263;-80
2024/03/12 11:49:06;;;;;;;21.87;16.90;;;13.50;99.90;;;;;;4928988;29;20599;-81
2024/03/12 11:51:55;;;;;;;19.70;16.17;;;13.60;99.90;;;;;;4933093;29;20620;-81
2024/03/12 11:54:40;;;;;;;19.40;15.17;;;13.70;99.90;;;;;;4952786;29;20642;-80
2024/03/12 11:57:27;;;;;;;19.63;16.23;;;13.80;99.90;;;;;;4934351;29;20596;-81
2024/03/12 11:59:55;;;;;;;18.90;16.10;;;13.90;99.90;;;;;;4931569;29;20593;-80
2024/03/12 12:02:23;;;;;;;18.00;16.10;;;14.10;99.90;;;;;;4931863;29;20736;-80
2024/03/12 12:04:53;;;;;;;17.80;15.53;;;14.30;99.90;;;;;;4933354;29;20627;-81
2024/03/12 12:07:21;;;;;;;19.57;14.97;;;14.50;99.90;;;;;;4932125;29;20592;-81
2024/03/12 12:09:51;;;;;;;25.33;16.27;;;14.70;99.90;;;;;;4933061;29;20592;-81
2024/03/12 12:12:17;;;;;;;18.63;15.93;;;14.90;99.90;;;;;;4933403;29;20623;-79
2024/03/12 12:14:44;;;;;;;19.70;15.93;;;15.00;99.90;;;;;;4933531;29;20644;-80
2024/03/12 12:17:19;;;;;;;20.80;16.77;;;15.20;99.90;;;;;;4933184;29;20613;-80
2024/03/12 12:20:00;;;;;;;21.87;15.80;;;15.40;99.90;;;;;;4932068;29;20592;-80
2024/03/12 12:22:29;;;;;;;17.27;14.93;;;15.60;99.90;;;;;;4933944;29;21058;-79
2024/03/12 12:24:56;;;;;;;18.70;16.00;;;15.70;99.90;;;;;;4932300;29;20654;-79
2024/03/12 12:27:22;;;;;;;16.07;13.77;;;15.80;99.90;;;;;;4933310;29;20589;-78
2024/03/12 12:29:48;;;;;;;17.83;14.87;;;15.90;99.90;;;;;;4933109;29;20584;-79
2024/03/12 12:32:14;;;;;;;20.07;16.73;;;16.00;99.90;;;;;;4933602;29;20601;-79
2024/03/12 12:34:41;;;;;;;19.47;16.00;;;16.10;99.90;;;;;;4949989;29;20846;-79
2024/03/12 12:37:09;;;;;;;19.97;16.37;;;16.20;99.90;;;;;;4949687;29;20573;-79